createdAt,value
2022-10-19T00:01:05.152Z,12.69
2022-10-19T00:03:06.440Z,12.69
2022-10-19T00:05:07.731Z,12.69
2022-10-19T00:07:09.248Z,12.73
2022-10-19T00:09:10.977Z,12.71
2022-10-19T00:11:11.870Z,12.74
2022-10-19T00:13:12.765Z,12.77
2022-10-19T00:15:14.136Z,12.79
2022-10-19T00:17:15.218Z,12.81
2022-10-19T00:19:17.015Z,12.81
2022-10-19T00:21:18.132Z,12.83
2022-10-19T00:23:19.338Z,12.86
2022-10-19T00:25:20.487Z,12.88
2022-10-19T00:27:22.066Z,12.91
2022-10-19T00:29:23.934Z,12.93
2022-10-19T00:31:25.114Z,12.95
2022-10-19T00:33:26.861Z,12.99
2022-10-19T00:35:28.769Z,12.87
2022-10-19T00:37:29.696Z,12.77
2022-10-19T00:39:30.807Z,12.78
2022-10-19T00:41:31.988Z,12.76
2022-10-19T00:43:33.336Z,12.76
2022-10-19T00:45:34.436Z,12.77
2022-10-19T00:47:35.855Z,12.71
2022-10-19T00:49:37.528Z,12.67
2022-10-19T00:51:39.384Z,12.7
2022-10-19T00:53:40.934Z,12.64
2022-10-19T00:55:42.379Z,12.66
2022-10-19T00:57:43.602Z,12.67
2022-10-19T00:59:44.891Z,12.64
2022-10-19T01:01:46.316Z,12.68
2022-10-19T01:03:47.389Z,12.64
2022-10-19T01:05:48.308Z,12.61
2022-10-19T01:07:49.454Z,12.64
2022-10-19T01:09:50.575Z,12.7
2022-10-19T01:11:52.371Z,12.68
2022-10-19T01:13:53.272Z,12.75
2022-10-19T01:15:54.737Z,12.76
2022-10-19T01:17:56.614Z,12.75
2022-10-19T01:19:57.537Z,12.75
2022-10-19T01:21:58.679Z,12.7
2022-10-19T01:23:59.866Z,12.7
2022-10-19T01:26:01.153Z,12.72
2022-10-19T01:28:02.213Z,12.73
2022-10-19T01:30:03.609Z,12.74
2022-10-19T01:32:04.814Z,12.61
2022-10-19T01:34:05.716Z,12.59
2022-10-19T01:36:07.584Z,12.48
2022-10-19T01:40:10.212Z,12.39
2022-10-19T01:42:11.878Z,12.36
2022-10-19T01:44:12.865Z,12.34
2022-10-19T01:46:14.556Z,12.31
2022-10-19T01:48:15.470Z,12.29
2022-10-19T01:50:16.751Z,12.24
2022-10-19T01:52:18.437Z,12.25
2022-10-19T01:54:19.494Z,12.21
2022-10-19T01:56:21.018Z,12.14
2022-10-19T02:00:24.034Z,12.13
2022-10-19T02:02:25.759Z,12.14
2022-10-19T02:04:27.030Z,12.17
2022-10-19T02:06:28.122Z,12.14
2022-10-19T02:08:29.349Z,12.18
2022-10-19T02:10:30.660Z,12.21
2022-10-19T02:12:32.378Z,12.21
2022-10-19T02:14:33.804Z,12.21
2022-10-19T02:16:35.030Z,12.18
2022-10-19T02:18:36.393Z,12.16
2022-10-19T02:20:37.650Z,12.16
2022-10-19T02:22:39.305Z,12.2
2022-10-19T02:24:40.316Z,12.19
2022-10-19T02:26:41.835Z,12.18
2022-10-19T02:28:43.364Z,12.14
2022-10-19T02:30:45.080Z,12.07
2022-10-19T02:32:46.116Z,12.05
2022-10-19T02:34:47.824Z,12.06
2022-10-19T02:36:49.052Z,12.07
2022-10-19T02:38:50.738Z,12.07
2022-10-19T02:40:52.609Z,12.07
2022-10-19T02:42:54.409Z,12.09
2022-10-19T02:44:55.616Z,12.1
2022-10-19T02:46:57.489Z,12.05
2022-10-19T02:48:58.942Z,12.04
2022-10-19T02:51:00.287Z,12.06
2022-10-19T02:53:01.339Z,12
2022-10-19T02:55:02.815Z,11.99
2022-10-19T02:57:03.727Z,11.93
2022-10-19T02:59:04.815Z,11.92
2022-10-19T03:01:05.862Z,11.86
2022-10-19T03:03:07.204Z,11.92
2022-10-19T03:05:08.360Z,11.88
2022-10-19T03:07:09.505Z,11.8
2022-10-19T03:09:10.764Z,11.78
2022-10-19T03:11:12.329Z,11.77
2022-10-19T03:13:13.436Z,11.76
2022-10-19T03:15:15.040Z,11.79
2022-10-19T03:17:16.693Z,11.72
2022-10-19T03:19:17.768Z,11.72
2022-10-19T03:21:19.044Z,11.63
2022-10-19T03:23:20.458Z,11.63
2022-10-19T03:25:21.896Z,11.61
2022-10-19T03:27:23.321Z,11.57
2022-10-19T03:29:24.488Z,11.49
2022-10-19T03:31:25.744Z,11.49
2022-10-19T03:33:27.161Z,11.46
2022-10-19T03:35:28.442Z,11.44
2022-10-19T03:37:30.034Z,11.49
2022-10-19T03:39:31.639Z,11.51
2022-10-19T03:41:33.043Z,11.48
2022-10-19T03:43:34.638Z,11.39
2022-10-19T03:45:35.540Z,11.39
2022-10-19T03:47:37.256Z,11.37
2022-10-19T03:49:39.567Z,11.37
2022-10-19T03:51:39.708Z,11.35
2022-10-19T03:53:40.753Z,11.36
2022-10-19T03:55:42.204Z,11.32
2022-10-19T03:57:43.954Z,11.34
2022-10-19T03:59:45.357Z,11.33
2022-10-19T04:01:46.993Z,11.33
2022-10-19T04:03:48.524Z,11.35
2022-10-19T04:05:50.031Z,11.3
2022-10-19T04:07:51.350Z,11.3
2022-10-19T04:09:53.000Z,11.3
2022-10-19T04:11:53.924Z,11.32
2022-10-19T04:13:55.237Z,11.32
2022-10-19T04:15:56.918Z,11.33
2022-10-19T04:17:58.328Z,11.34
2022-10-19T04:19:59.320Z,11.37
2022-10-19T04:20:43.143Z,11.37
2022-10-19T04:22:44.991Z,11.37
2022-10-19T04:24:46.657Z,11.43
2022-10-19T04:26:48.092Z,11.37
2022-10-19T04:28:49.095Z,11.41
2022-10-19T04:30:50.718Z,11.42
2022-10-19T04:32:51.829Z,11.42
2022-10-19T04:34:53.485Z,11.41
2022-10-19T04:36:54.932Z,11.34
2022-10-19T04:38:56.809Z,11.35
2022-10-19T04:40:57.819Z,11.35
2022-10-19T04:42:59.284Z,11.28
2022-10-19T04:45:00.609Z,11.28
2022-10-19T04:47:01.925Z,11.25
2022-10-19T04:49:03.225Z,11.27
2022-10-19T04:51:04.653Z,11.28
2022-10-19T04:53:06.105Z,11.29
2022-10-19T04:55:06.983Z,11.31
2022-10-19T04:57:08.523Z,11.29
2022-10-19T04:59:09.816Z,11.29
2022-10-19T05:01:11.087Z,11.3
2022-10-19T05:03:12.263Z,11.29
2022-10-19T05:05:13.623Z,11.31
2022-10-19T05:07:14.604Z,11.31
2022-10-19T05:09:16.075Z,11.29
2022-10-19T05:11:17.302Z,11.31
2022-10-19T05:13:18.558Z,11.31
2022-10-19T05:15:20.159Z,11.3
2022-10-19T05:17:21.286Z,11.29
2022-10-19T05:19:23.081Z,11.27
2022-10-19T05:21:24.547Z,11.3
2022-10-19T05:23:25.869Z,11.27
2022-10-19T05:25:27.420Z,11.25
2022-10-19T05:27:28.427Z,11.28
2022-10-19T05:29:30.156Z,11.26
2022-10-19T05:31:31.303Z,11.16
2022-10-19T05:33:32.684Z,11.17
2022-10-19T05:35:33.740Z,11.15
2022-10-19T05:37:35.833Z,11.09
2022-10-19T05:39:36.758Z,11.11
2022-10-19T05:41:38.520Z,11.07
2022-10-19T05:43:40.390Z,11.07
2022-10-19T05:45:42.102Z,11.1
2022-10-19T05:47:43.140Z,11.07
2022-10-19T05:49:44.318Z,11.12
2022-10-19T05:51:46.192Z,11.08
2022-10-19T05:53:48.047Z,11.12
2022-10-19T05:55:49.766Z,11.13
2022-10-19T05:57:50.845Z,11.18
2022-10-19T05:59:52.505Z,11.17
2022-10-19T06:01:54.000Z,11.23
2022-10-19T06:03:55.481Z,11.23
2022-10-19T06:05:56.387Z,11.22
2022-10-19T06:07:57.359Z,11.23
2022-10-19T06:12:00.136Z,11.3
2022-10-19T06:14:01.121Z,11.31
2022-10-19T06:16:02.530Z,11.33
2022-10-19T06:18:03.647Z,11.35
2022-10-19T06:20:05.006Z,11.36
2022-10-19T06:22:06.432Z,11.4
2022-10-19T06:24:07.337Z,11.32
2022-10-19T06:26:09.176Z,11.35
2022-10-19T06:28:10.153Z,11.37
2022-10-19T06:30:11.610Z,11.34
2022-10-19T06:32:13.382Z,11.39
2022-10-19T06:34:14.540Z,11.34
2022-10-19T06:36:16.049Z,11.37
2022-10-19T06:38:17.026Z,11.37
2022-10-19T06:40:18.149Z,11.33
2022-10-19T06:42:19.771Z,11.33
2022-10-19T06:44:21.342Z,11.35
2022-10-19T06:46:22.308Z,11.41
2022-10-19T06:48:23.893Z,11.51
2022-10-19T06:50:25.320Z,11.52
2022-10-19T06:52:26.243Z,11.54
2022-10-19T06:54:28.130Z,11.71
2022-10-19T06:56:29.667Z,11.77
2022-10-19T06:58:31.069Z,11.83
2022-10-19T07:00:32.120Z,11.84
2022-10-19T07:02:33.077Z,11.85
2022-10-19T07:04:34.859Z,11.74
2022-10-19T07:06:36.113Z,11.74
2022-10-19T07:08:37.370Z,11.7
2022-10-19T07:10:39.145Z,11.76
2022-10-19T07:12:40.556Z,11.72
2022-10-19T07:14:42.260Z,11.6
2022-10-19T07:16:44.099Z,11.54
2022-10-19T07:18:45.238Z,11.6
2022-10-19T07:20:46.995Z,11.57
2022-10-19T07:22:48.084Z,11.58
2022-10-19T07:24:49.423Z,11.43
2022-10-19T07:26:50.536Z,11.45
2022-10-19T07:28:51.732Z,11.48
2022-10-19T07:30:53.002Z,11.52
2022-10-19T07:32:54.689Z,11.6
2022-10-19T07:34:56.398Z,11.48
2022-10-19T07:36:58.016Z,11.61
2022-10-19T07:38:58.960Z,11.53
2022-10-19T07:41:00.366Z,11.7
2022-10-19T07:43:01.677Z,11.66
2022-10-19T07:45:02.748Z,11.73
2022-10-19T07:47:04.107Z,11.67
2022-10-19T07:49:05.130Z,11.62
2022-10-19T07:51:06.618Z,11.7
2022-10-19T07:53:08.385Z,11.79
2022-10-19T07:55:09.911Z,11.96
2022-10-19T07:57:11.495Z,11.82
2022-10-19T07:59:13.152Z,11.87
2022-10-19T08:01:14.692Z,11.88
2022-10-19T08:05:17.790Z,11.77
2022-10-19T08:07:18.939Z,11.74
2022-10-19T08:09:33.717Z,11.79
2022-10-19T08:11:21.955Z,11.88
2022-10-19T08:13:23.820Z,11.8
2022-10-19T08:15:25.581Z,11.95
2022-10-19T08:17:27.299Z,11.97
2022-10-19T08:19:28.554Z,12.01
2022-10-19T08:21:29.694Z,12.01
2022-10-19T08:23:31.365Z,11.93
2022-10-19T08:25:32.417Z,11.94
2022-10-19T08:27:33.591Z,11.96
2022-10-19T08:29:35.200Z,11.83
2022-10-19T08:31:36.076Z,11.92
2022-10-19T08:33:37.017Z,11.94
2022-10-19T08:35:38.373Z,12.06
2022-10-19T08:37:44.615Z,12.09
2022-10-19T08:39:41.693Z,11.97
2022-10-19T08:41:43.258Z,12.07
2022-10-19T08:43:44.825Z,12.27
2022-10-19T08:45:45.819Z,12.1
2022-10-19T08:47:47.444Z,12.14
2022-10-19T08:49:48.657Z,11.96
2022-10-19T08:51:50.085Z,11.85
2022-10-19T08:53:51.549Z,12.01
2022-10-19T08:55:52.984Z,12.03
2022-10-19T08:57:54.174Z,12.06
2022-10-19T08:59:55.925Z,11.98
2022-10-19T09:01:56.829Z,12.25
2022-10-19T09:03:58.568Z,12.2
2022-10-19T09:05:59.702Z,12.14
2022-10-19T09:08:00.917Z,12.2
2022-10-19T09:10:02.773Z,12.15
2022-10-19T09:12:03.693Z,12.12
2022-10-19T09:14:06.037Z,12.13
2022-10-19T09:18:07.979Z,12.12
2022-10-19T09:20:09.139Z,12.05
2022-10-19T09:22:10.893Z,12.1
2022-10-19T09:24:12.621Z,12.12
2022-10-19T09:26:14.103Z,11.96
2022-10-19T09:28:15.429Z,11.91
2022-10-19T09:30:16.479Z,11.93
2022-10-19T09:32:18.074Z,11.97
2022-10-19T09:34:19.189Z,11.82
2022-10-19T09:36:23.003Z,11.82
2022-10-19T09:38:22.471Z,11.81
2022-10-19T09:40:23.561Z,11.76
2022-10-19T09:42:24.567Z,11.73
2022-10-19T09:44:26.048Z,11.87
2022-10-19T09:46:27.805Z,11.88
2022-10-19T09:48:29.417Z,11.82
2022-10-19T09:50:30.417Z,11.83
2022-10-19T09:52:32.100Z,11.99
2022-10-19T09:54:33.329Z,12.03
2022-10-19T09:56:34.367Z,12.04
2022-10-19T09:58:35.798Z,12.14
2022-10-19T10:00:37.588Z,12.11
2022-10-19T10:02:39.068Z,12.3
2022-10-19T10:04:40.102Z,12.19
2022-10-19T10:06:41.557Z,12.08
2022-10-19T10:08:42.556Z,12.14
2022-10-19T10:10:44.264Z,12.25
2022-10-19T10:12:46.042Z,12.32
2022-10-19T10:14:47.778Z,12.33
2022-10-19T10:16:48.732Z,12.55
2022-10-19T10:18:50.150Z,12.45
2022-10-19T10:20:51.314Z,12.51
2022-10-19T10:22:52.798Z,12.56
2022-10-19T10:24:54.019Z,12.61
2022-10-19T10:26:54.992Z,12.48
2022-10-19T10:28:57.817Z,12.51
2022-10-19T10:30:57.775Z,12.38
2022-10-19T10:33:03.710Z,12.49
2022-10-19T10:35:01.169Z,12.49
2022-10-19T10:37:01.136Z,12.48
2022-10-19T10:41:03.994Z,12.74
2022-10-19T10:43:05.847Z,12.82
2022-10-19T10:45:07.403Z,12.82
2022-10-19T10:47:09.192Z,12.69
2022-10-19T10:49:10.895Z,12.81
2022-10-19T10:51:12.236Z,12.78
2022-10-19T10:53:13.099Z,12.68
2022-10-19T10:55:14.681Z,12.79
2022-10-19T10:57:15.992Z,12.81
2022-10-19T10:59:17.307Z,12.91
2022-10-19T11:01:18.276Z,12.8
2022-10-19T11:03:19.645Z,12.83
2022-10-19T11:05:21.047Z,12.73
2022-10-19T11:06:04.820Z,12.76
2022-10-19T11:08:06.306Z,12.64
2022-10-19T11:10:08.098Z,12.73
2022-10-19T11:12:09.367Z,12.78
2022-10-19T11:14:10.299Z,12.87
2022-10-19T11:16:11.413Z,13.05
2022-10-19T11:18:12.321Z,12.81
2022-10-19T11:20:14.140Z,12.88
2022-10-19T11:22:15.391Z,13.09
2022-10-19T11:24:16.963Z,13.04
2022-10-19T11:26:18.419Z,13.03
2022-10-19T11:28:19.517Z,13.14
2022-10-19T11:30:20.997Z,13.11
2022-10-19T11:32:22.870Z,12.98
2022-10-19T11:34:25.839Z,13.08
2022-10-19T11:36:25.402Z,13.17
2022-10-19T11:38:29.979Z,13.23
2022-10-19T11:40:29.038Z,13.06
2022-10-19T11:42:29.927Z,13.28
2022-10-19T11:44:30.760Z,13.28
2022-10-19T11:46:31.886Z,13.23
2022-10-19T11:48:33.154Z,13.15
2022-10-19T11:50:34.703Z,13.11
2022-10-19T11:52:36.781Z,13.05
2022-10-19T11:54:38.405Z,13.1
2022-10-19T11:58:40.529Z,13.26
2022-10-19T12:00:41.924Z,13.23
2022-10-19T12:02:43.563Z,13.36
2022-10-19T12:04:45.204Z,13.22
2022-10-19T12:06:46.330Z,13.3
2022-10-19T12:08:48.364Z,13.28
2022-10-19T12:10:48.912Z,13.1
2022-10-19T12:12:50.255Z,13.17
2022-10-19T12:14:51.610Z,13.27
2022-10-19T12:16:53.232Z,13.22
2022-10-19T12:18:54.236Z,13.23
2022-10-19T12:20:55.193Z,13.32
2022-10-19T12:22:56.582Z,13.32
2022-10-19T12:24:58.083Z,13.37
2022-10-19T12:26:59.703Z,13.27
2022-10-19T12:29:00.689Z,13.32
2022-10-19T12:31:02.035Z,13.33
2022-10-19T12:33:03.796Z,13.31
2022-10-19T12:35:05.095Z,13.32
2022-10-19T12:37:06.628Z,13.37
2022-10-19T12:39:07.717Z,13.44
2022-10-19T12:41:09.426Z,13.54
2022-10-19T12:43:10.730Z,13.52
2022-10-19T12:45:11.889Z,13.44
2022-10-19T12:47:12.805Z,13.53
2022-10-19T12:49:14.354Z,13.64
2022-10-19T12:51:15.786Z,13.57
2022-10-19T12:53:16.717Z,13.43
2022-10-19T12:55:17.798Z,13.46
2022-10-19T12:57:22.574Z,13.44
2022-10-19T12:59:20.437Z,13.44
2022-10-19T13:01:21.937Z,13.42
2022-10-19T13:03:24.048Z,13.38
2022-10-19T13:05:24.412Z,13.31
2022-10-19T13:07:25.616Z,13.33
2022-10-19T13:09:27.381Z,13.46
2022-10-19T13:11:29.275Z,13.43
2022-10-19T13:13:30.788Z,13.36
2022-10-19T13:17:34.207Z,13.35
2022-10-19T13:19:34.771Z,13.39
2022-10-19T13:21:36.356Z,13.34
2022-10-19T13:23:37.582Z,13.34
2022-10-19T13:25:39.363Z,13.36
2022-10-19T13:27:40.515Z,13.33
2022-10-19T13:29:41.649Z,13.36
2022-10-19T13:31:42.939Z,13.37
2022-10-19T13:33:44.226Z,13.32
2022-10-19T13:35:45.640Z,13.29
2022-10-19T13:37:46.756Z,13.31
2022-10-19T13:39:48.280Z,13.35
2022-10-19T13:41:49.921Z,13.34
2022-10-19T13:43:51.787Z,13.36
2022-10-19T13:45:53.127Z,13.31
2022-10-19T13:47:54.973Z,13.32
2022-10-19T13:49:56.031Z,13.36
2022-10-19T13:51:57.616Z,13.38
2022-10-19T13:53:58.635Z,13.36
2022-10-19T13:55:59.611Z,13.34
2022-10-19T13:58:02.808Z,13.38
2022-10-19T14:00:02.557Z,13.37
2022-10-19T14:02:04.301Z,13.47
2022-10-19T14:04:05.156Z,13.48
2022-10-19T14:06:06.264Z,13.5
2022-10-19T14:08:07.723Z,13.48
2022-10-19T14:10:09.550Z,13.53
2022-10-19T14:12:11.207Z,13.61
2022-10-19T14:14:12.903Z,13.65
2022-10-19T14:16:14.384Z,13.6
2022-10-19T14:18:19.418Z,13.65
2022-10-19T14:20:18.122Z,13.61
2022-10-19T14:22:19.865Z,13.69
2022-10-19T14:24:20.955Z,13.61
2022-10-19T14:26:22.003Z,13.62
2022-10-19T14:28:23.733Z,13.61
2022-10-19T14:30:24.726Z,13.54
2022-10-19T14:32:25.806Z,13.58
2022-10-19T14:34:27.125Z,13.57
2022-10-19T14:36:28.907Z,13.56
2022-10-19T14:38:29.960Z,13.56
2022-10-19T14:40:30.782Z,13.51
2022-10-19T14:42:32.622Z,13.46
2022-10-19T14:44:34.033Z,13.37
2022-10-19T14:46:35.337Z,13.34
2022-10-19T14:48:36.584Z,13.31
2022-10-19T14:52:39.439Z,13.34
2022-10-19T14:54:40.518Z,13.33
2022-10-19T14:58:42.982Z,13.26
2022-10-19T15:00:44.003Z,13.09
2022-10-19T15:02:45.690Z,12.97
2022-10-19T15:04:46.935Z,13.01
2022-10-19T15:06:48.249Z,12.9
2022-10-19T15:08:49.704Z,12.81
2022-10-19T15:10:50.625Z,12.78
2022-10-19T15:12:51.768Z,12.75
2022-10-19T15:14:53.339Z,12.64
2022-10-19T15:16:54.660Z,12.64
2022-10-19T15:18:56.005Z,12.55
2022-10-19T15:21:11.511Z,12.54
2022-10-19T15:22:58.445Z,12.53
2022-10-19T15:24:59.428Z,12.48
2022-10-19T15:27:08.934Z,12.47
2022-10-19T15:29:02.320Z,12.51
2022-10-19T15:31:04.110Z,12.54
2022-10-19T15:33:05.440Z,12.56
2022-10-19T15:35:11.122Z,12.55
2022-10-19T15:37:09.607Z,12.54
2022-10-19T15:39:18.133Z,12.59
2022-10-19T15:41:11.663Z,12.68
2022-10-19T15:43:13.236Z,12.72
2022-10-19T15:45:14.939Z,12.71
2022-10-19T15:47:16.479Z,12.7
2022-10-19T15:49:18.010Z,12.73
2022-10-19T15:51:21.778Z,12.69
2022-10-19T15:53:20.120Z,12.6
2022-10-19T15:55:21.663Z,12.51
2022-10-19T15:57:22.613Z,12.45
2022-10-19T15:59:23.653Z,12.37
2022-10-19T16:01:25.216Z,12.31
2022-10-19T16:03:26.327Z,12.25
2022-10-19T16:05:27.505Z,12.2
2022-10-19T16:07:28.936Z,12.25
2022-10-19T16:09:30.814Z,12.08
2022-10-19T16:11:32.302Z,12.04
2022-10-19T16:13:33.737Z,11.95
2022-10-19T16:15:34.792Z,11.83
2022-10-19T16:17:36.954Z,11.77
2022-10-19T16:19:37.940Z,11.64
2022-10-19T16:21:39.285Z,11.56
2022-10-19T16:23:41.835Z,11.56
2022-10-19T16:25:42.056Z,11.51
2022-10-19T16:27:43.052Z,11.42
2022-10-19T16:29:44.955Z,11.47
2022-10-19T16:31:46.746Z,11.45
2022-10-19T16:33:48.228Z,11.43
2022-10-19T16:35:49.174Z,11.39
2022-10-19T16:37:50.416Z,11.32
2022-10-19T16:39:52.166Z,11.3
2022-10-19T16:41:53.008Z,11.25
2022-10-19T16:43:54.460Z,11.23
2022-10-19T16:45:55.506Z,11.18
2022-10-19T16:47:56.574Z,11.08
2022-10-19T16:49:57.827Z,11.02
2022-10-19T16:51:58.742Z,10.98
2022-10-19T16:54:00.633Z,10.87
2022-10-19T16:56:02.533Z,10.81
2022-10-19T16:58:03.890Z,10.84
2022-10-19T17:00:04.936Z,10.81
2022-10-19T17:02:06.566Z,10.76
2022-10-19T17:04:07.488Z,10.76
2022-10-19T17:06:08.811Z,10.68
2022-10-19T17:08:10.583Z,10.61
2022-10-19T17:10:12.473Z,10.56
2022-10-19T17:12:13.720Z,10.51
2022-10-19T17:14:14.894Z,10.44
2022-10-19T17:16:16.491Z,10.44
2022-10-19T17:20:19.963Z,10.39
2022-10-19T17:22:20.852Z,10.36
2022-10-19T17:24:22.640Z,10.29
2022-10-19T17:26:23.792Z,10.3
2022-10-19T17:28:26.849Z,10.2
2022-10-19T17:30:26.218Z,10.23
2022-10-19T17:32:28.087Z,10.16
2022-10-19T17:34:29.881Z,10.12
2022-10-19T17:36:30.980Z,10.03
2022-10-19T17:38:31.904Z,10.14
2022-10-19T17:40:33.845Z,10.05
2022-10-19T17:42:35.521Z,10
2022-10-19T17:44:37.370Z,10.16
2022-10-19T17:46:38.674Z,9.9
2022-10-19T17:48:40.366Z,9.85
2022-10-19T17:50:41.378Z,10.01
2022-10-19T17:52:42.960Z,9.85
2022-10-19T17:53:26.834Z,9.82
2022-10-19T17:55:27.947Z,9.78
2022-10-19T17:57:29.354Z,9.82
2022-10-19T17:59:40.627Z,9.91
2022-10-19T18:01:31.569Z,9.83
2022-10-19T18:03:33.183Z,9.8
2022-10-19T18:05:34.982Z,9.8
2022-10-19T18:07:37.030Z,9.77
2022-10-19T18:09:38.360Z,9.75
2022-10-19T18:11:39.450Z,9.8
2022-10-19T18:13:40.989Z,9.8
2022-10-19T18:15:42.221Z,10.02
2022-10-19T18:17:44.040Z,9.94
2022-10-19T18:19:45.947Z,10.04
2022-10-19T18:21:47.541Z,10.05
2022-10-19T18:23:49.077Z,10.05
2022-10-19T18:25:54.090Z,10.03
2022-10-19T18:27:51.271Z,10
2022-10-19T18:29:52.799Z,9.89
2022-10-19T18:31:54.352Z,9.82
2022-10-19T18:33:56.151Z,9.75
2022-10-19T18:35:57.107Z,9.65
2022-10-19T18:37:58.337Z,9.55
2022-10-19T18:39:59.977Z,9.49
2022-10-19T18:42:01.685Z,9.52
2022-10-19T18:44:03.424Z,9.57
2022-10-19T18:46:04.947Z,9.59
2022-10-19T18:48:06.477Z,9.64
2022-10-19T18:50:07.889Z,9.88
2022-10-19T18:52:09.284Z,9.91
2022-10-19T18:54:11.012Z,9.85
2022-10-19T18:56:12.788Z,9.75
2022-10-19T18:58:14.100Z,9.83
2022-10-19T19:00:15.292Z,9.77
2022-10-19T19:02:22.109Z,9.69
2022-10-19T19:04:17.711Z,9.94
2022-10-19T19:06:18.973Z,9.85
2022-10-19T19:08:20.314Z,9.77
2022-10-19T19:10:21.810Z,9.74
2022-10-19T19:12:23.581Z,9.8
2022-10-19T19:14:25.448Z,9.63
2022-10-19T19:16:27.137Z,9.57
2022-10-19T19:18:28.951Z,9.58
2022-10-19T19:20:30.088Z,9.6
2022-10-19T19:22:31.333Z,9.57
2022-10-19T19:24:33.271Z,9.57
2022-10-19T19:26:34.516Z,9.44
2022-10-19T19:28:36.655Z,9.39
2022-10-19T19:30:37.520Z,9.28
2022-10-19T19:32:39.108Z,9.25
2022-10-19T19:34:40.215Z,9.27
2022-10-19T19:38:43.756Z,9.4
2022-10-19T19:40:45.134Z,9.33
2022-10-19T19:42:46.617Z,9
2022-10-19T19:44:47.880Z,8.86
2022-10-19T19:46:49.505Z,8.92
2022-10-19T19:48:50.981Z,8.94
2022-10-19T19:50:52.722Z,8.83
2022-10-19T19:52:54.489Z,8.97
2022-10-19T19:54:55.492Z,8.82
2022-10-19T19:56:57.285Z,8.7
2022-10-19T19:58:58.714Z,8.72
2022-10-19T20:00:59.967Z,8.78
2022-10-19T20:03:01.437Z,8.7
2022-10-19T20:05:02.393Z,8.68
2022-10-19T20:07:03.860Z,8.79
2022-10-19T20:09:05.134Z,8.68
2022-10-19T20:11:06.498Z,8.55
2022-10-19T20:13:07.681Z,8.71
2022-10-19T20:15:09.288Z,8.79
2022-10-19T20:17:10.699Z,8.97
2022-10-19T20:19:12.633Z,9.05
2022-10-19T20:21:13.892Z,8.88
2022-10-19T20:23:14.831Z,8.89
2022-10-19T20:25:16.533Z,8.95
2022-10-19T20:27:18.221Z,8.94
2022-10-19T20:29:19.727Z,8.88
2022-10-19T20:31:21.370Z,8.75
2022-10-19T20:33:22.493Z,8.64
2022-10-19T20:35:23.758Z,8.6
2022-10-19T20:37:25.410Z,8.61
2022-10-19T20:39:26.433Z,8.6
2022-10-19T20:41:28.011Z,8.66
2022-10-19T20:43:29.401Z,8.64
2022-10-19T20:45:31.153Z,8.58
2022-10-19T20:47:32.738Z,8.33
2022-10-19T20:49:34.181Z,8.07
2022-10-19T20:51:35.290Z,8.13
2022-10-19T20:55:37.478Z,8.51
2022-10-19T20:57:38.478Z,8.44
2022-10-19T20:59:39.615Z,8.5
2022-10-19T21:01:41.045Z,8.5
2022-10-19T21:03:42.726Z,8.4
2022-10-19T21:05:44.399Z,8.56
2022-10-19T21:07:45.501Z,8.38
2022-10-19T21:09:46.691Z,8.4
2022-10-19T21:11:47.934Z,8.41
2022-10-19T21:13:48.913Z,8.39
2022-10-19T21:15:50.242Z,8.33
2022-10-19T21:17:51.778Z,8.3
2022-10-19T21:19:56.914Z,8.38
2022-10-19T21:21:54.483Z,8.42
2022-10-19T21:23:56.214Z,8.41
2022-10-19T21:25:57.901Z,8.2
2022-10-19T21:27:59.178Z,8.04
2022-10-19T21:30:00.318Z,7.96
2022-10-19T21:32:01.467Z,7.97
2022-10-19T21:34:03.267Z,7.86
2022-10-19T21:36:04.298Z,7.76
2022-10-19T21:38:05.347Z,7.81
2022-10-19T21:40:07.212Z,7.93
2022-10-19T21:42:08.435Z,8.09
2022-10-19T21:44:09.569Z,8.02
2022-10-19T21:46:11.116Z,7.96
2022-10-19T21:48:12.928Z,7.92
2022-10-19T21:50:14.882Z,8.03
2022-10-19T21:52:16.738Z,7.9
2022-10-19T21:54:18.221Z,7.96
2022-10-19T21:56:19.796Z,7.93
2022-10-19T21:58:21.660Z,8.03
2022-10-19T22:00:23.472Z,8.08
2022-10-19T22:02:24.574Z,8
2022-10-19T22:04:25.958Z,7.84
2022-10-19T22:06:26.909Z,7.81
2022-10-19T22:08:28.262Z,7.96
2022-10-19T22:10:30.085Z,7.97
2022-10-19T22:12:31.097Z,7.91
2022-10-19T22:14:32.247Z,8.07
2022-10-19T22:16:33.736Z,8.12
2022-10-19T22:18:34.743Z,8.15
2022-10-19T22:20:36.443Z,8.14
2022-10-19T22:22:38.095Z,7.97
2022-10-19T22:24:39.762Z,7.81
2022-10-19T22:26:41.198Z,7.56
2022-10-19T22:28:42.881Z,7.49
2022-10-19T22:30:44.740Z,7.47
2022-10-19T22:32:45.746Z,7.64
2022-10-19T22:34:46.909Z,7.75
2022-10-19T22:36:48.396Z,7.8
2022-10-19T22:38:50.043Z,7.78
2022-10-19T22:40:51.203Z,7.76
2022-10-19T22:42:53.013Z,7.75
2022-10-19T22:44:54.101Z,7.72
2022-10-19T22:46:55.864Z,7.75
2022-10-19T22:48:57.724Z,7.73
2022-10-19T22:50:59.415Z,7.76
2022-10-19T22:53:00.525Z,7.62
2022-10-19T22:55:01.513Z,7.51
2022-10-19T22:57:02.749Z,7.44
2022-10-19T22:59:04.161Z,7.41
2022-10-19T23:01:05.223Z,7.34
2022-10-19T23:03:06.245Z,7.25
2022-10-19T23:05:07.445Z,7.25
2022-10-19T23:07:08.958Z,7.19
2022-10-19T23:09:10.476Z,7.12
2022-10-19T23:11:12.145Z,7.07
2022-10-19T23:13:13.534Z,6.98
2022-10-19T23:15:15.230Z,6.96
2022-10-19T23:17:16.495Z,6.94
2022-10-19T23:19:17.995Z,6.89
2022-10-19T23:21:19.175Z,6.87
2022-10-19T23:23:20.518Z,6.94
2022-10-19T23:25:21.649Z,7.12
2022-10-19T23:27:22.848Z,7.06
2022-10-19T23:29:24.015Z,7
2022-10-19T23:31:25.129Z,7.05
2022-10-19T23:33:26.674Z,7.07
2022-10-19T23:35:28.145Z,7.07
2022-10-19T23:37:30.072Z,7.11
2022-10-19T23:39:31.120Z,7.13
2022-10-19T23:41:33.018Z,7.38
2022-10-19T23:43:34.362Z,7.28
2022-10-19T23:45:35.870Z,7.18
2022-10-19T23:47:37.212Z,7.13
2022-10-19T23:49:38.580Z,7.07
2022-10-19T23:51:40.118Z,7.09
2022-10-19T23:53:41.698Z,7.03
2022-10-19T23:55:43.042Z,6.91
2022-10-19T23:57:44.900Z,6.82
2022-10-19T23:59:46.637Z,6.82
